sensor_id;sensor_type;location;lat;lon;timestamp;temperature;humidity
3330;DHT22;1677;49.576;10.990;2023-06-24T00:01:47;16.10;99.90
3330;DHT22;1677;49.576;10.990;2023-06-24T00:04:13;16.10;99.90
3330;DHT22;1677;49.576;10.990;2023-06-24T00:06:40;16.10;99.90
3330;DHT22;1677;49.576;10.990;2023-06-24T00:09:06;16.10;99.90
3330;DHT22;1677;49.576;10.990;2023-06-24T00:11:32;16.00;99.90
3330;DHT22;1677;49.576;10.990;2023-06-24T00:13:58;16.00;99.90
3330;DHT22;1677;49.576;10.990;2023-06-24T00:16:23;16.00;99.90
3330;DHT22;1677;49.576;10.990;2023-06-24T00:18:53;15.90;99.90
3330;DHT22;1677;49.576;10.990;2023-06-24T00:21:18;15.90;99.90
3330;DHT22;1677;49.576;10.990;2023-06-24T00:23:44;15.70;99.90
3330;DHT22;1677;49.576;10.990;2023-06-24T00:26:10;15.70;99.90
3330;DHT22;1677;49.576;10.990;2023-06-24T00:28:36;15.60;99.90
3330;DHT22;1677;49.576;10.990;2023-06-24T00:31:01;15.60;99.90
3330;DHT22;1677;49.576;10.990;2023-06-24T00:33:28;15.50;99.90
3330;DHT22;1677;49.576;10.990;2023-06-24T00:35:53;15.50;99.90
3330;DHT22;1677;49.576;10.990;2023-06-24T00:38:20;15.40;99.90
3330;DHT22;1677;49.576;10.990;2023-06-24T00:40:45;15.40;99.90
3330;DHT22;1677;49.576;10.990;2023-06-24T00:43:11;15.30;99.90
3330;DHT22;1677;49.576;10.990;2023-06-24T00:45:37;15.20;99.90
3330;DHT22;1677;49.576;10.990;2023-06-24T00:48:02;15.10;99.90
3330;DHT22;1677;49.576;10.990;2023-06-24T00:50:28;15.10;99.90
3330;DHT22;1677;49.576;10.990;2023-06-24T00:52:54;15.10;99.90
3330;DHT22;1677;49.576;10.990;2023-06-24T00:55:19;15.00;99.90
3330;DHT22;1677;49.576;10.990;2023-06-24T00:57:46;14.90;99.90
3330;DHT22;1677;49.576;10.990;2023-06-24T01:00:16;14.90;99.90
3330;DHT22;1677;49.576;10.990;2023-06-24T01:02:44;14.90;99.90
3330;DHT22;1677;49.576;10.990;2023-06-24T01:05:10;14.80;99.90
3330;DHT22;1677;49.576;10.990;2023-06-24T01:07:40;14.80;99.90
3330;DHT22;1677;49.576;10.990;2023-06-24T01:10:06;14.70;99.90
3330;DHT22;1677;49.576;10.990;2023-06-24T01:12:35;14.70;99.90
3330;DHT22;1677;49.576;10.990;2023-06-24T01:15:01;14.70;99.90
3330;DHT22;1677;49.576;10.990;2023-06-24T01:17:51;14.60;99.90
3330;DHT22;1677;49.576;10.990;2023-06-24T01:20:31;14.60;99.90
3330;DHT22;1677;49.576;10.990;2023-06-24T01:28:33;14.60;99.90
3330;DHT22;1677;49.576;10.990;2023-06-24T01:31:15;14.60;99.90
3330;DHT22;1677;49.576;10.990;2023-06-24T01:33:47;14.50;99.90
3330;DHT22;1677;49.576;10.990;2023-06-24T01:36:15;14.50;99.90
3330;DHT22;1677;49.576;10.990;2023-06-24T01:38:46;14.50;99.90
3330;DHT22;1677;49.576;10.990;2023-06-24T01:41:13;14.40;99.90
3330;DHT22;1677;49.576;10.990;2023-06-24T01:43:42;14.50;99.90
3330;DHT22;1677;49.576;10.990;2023-06-24T01:46:09;14.50;99.90
3330;DHT22;1677;49.576;10.990;2023-06-24T01:48:35;14.50;99.90
3330;DHT22;1677;49.576;10.990;2023-06-24T01:51:09;14.40;99.90
3330;DHT22;1677;49.576;10.990;2023-06-24T01:53:39;14.50;99.90
3330;DHT22;1677;49.576;10.990;2023-06-24T01:56:08;14.50;99.90
3330;DHT22;1677;49.576;10.990;2023-06-24T01:58:35;14.50;99.90
3330;DHT22;1677;49.576;10.990;2023-06-24T02:01:02;14.50;99.90
3330;DHT22;1677;49.576;10.990;2023-06-24T02:03:28;14.40;99.90
3330;DHT22;1677;49.576;10.990;2023-06-24T02:05:54;14.40;99.90
3330;DHT22;1677;49.576;10.990;2023-06-24T02:08:21;14.40;99.90
3330;DHT22;1677;49.576;10.990;2023-06-24T02:10:47;14.40;99.90
3330;DHT22;1677;49.576;10.990;2023-06-24T02:13:14;14.50;99.90
3330;DHT22;1677;49.576;10.990;2023-06-24T02:15:40;14.60;99.90
3330;DHT22;1677;49.576;10.990;2023-06-24T02:18:06;14.60;99.90
3330;DHT22;1677;49.576;10.990;2023-06-24T02:20:34;14.50;99.90
3330;DHT22;1677;49.576;10.990;2023-06-24T02:23:00;14.50;99.90
3330;DHT22;1677;49.576;10.990;2023-06-24T02:25:27;14.50;99.90
3330;DHT22;1677;49.576;10.990;2023-06-24T02:27:53;14.60;99.90
3330;DHT22;1677;49.576;10.990;2023-06-24T02:30:20;14.60;99.90
3330;DHT22;1677;49.576;10.990;2023-06-24T02:32:46;14.50;99.90
3330;DHT22;1677;49.576;10.990;2023-06-24T02:35:12;14.60;99.90
3330;DHT22;1677;49.576;10.990;2023-06-24T02:37:37;14.70;99.90
3330;DHT22;1677;49.576;10.990;2023-06-24T02:40:03;14.70;99.90
3330;DHT22;1677;49.576;10.990;2023-06-24T02:42:30;14.50;99.90
3330;DHT22;1677;49.576;10.990;2023-06-24T02:44:56;14.60;99.90
3330;DHT22;1677;49.576;10.990;2023-06-24T02:47:21;14.50;99.90
3330;DHT22;1677;49.576;10.990;2023-06-24T02:49:47;14.50;99.90
3330;DHT22;1677;49.576;10.990;2023-06-24T02:52:16;14.40;99.90
3330;DHT22;1677;49.576;10.990;2023-06-24T02:54:41;14.40;99.90
3330;DHT22;1677;49.576;10.990;2023-06-24T02:57:08;14.30;99.90
3330;DHT22;1677;49.576;10.990;2023-06-24T02:59:33;14.20;99.90
3330;DHT22;1677;49.576;10.990;2023-06-24T03:01:59;14.10;99.90
3330;DHT22;1677;49.576;10.990;2023-06-24T03:04:25;14.10;99.90
3330;DHT22;1677;49.576;10.990;2023-06-24T03:06:51;14.10;99.90
3330;DHT22;1677;49.576;10.990;2023-06-24T03:09:17;14.00;99.90
3330;DHT22;1677;49.576;10.990;2023-06-24T03:11:43;13.90;99.90
3330;DHT22;1677;49.576;10.990;2023-06-24T03:14:12;13.90;99.90
3330;DHT22;1677;49.576;10.990;2023-06-24T03:16:38;13.80;99.90
3330;DHT22;1677;49.576;10.990;2023-06-24T03:19:04;13.80;99.90
3330;DHT22;1677;49.576;10.990;2023-06-24T03:21:29;13.90;99.90
3330;DHT22;1677;49.576;10.990;2023-06-24T03:23:55;13.80;99.90
3330;DHT22;1677;49.576;10.990;2023-06-24T03:26:20;13.80;99.90
3330;DHT22;1677;49.576;10.990;2023-06-24T03:28:46;13.70;99.90
3330;DHT22;1677;49.576;10.990;2023-06-24T03:31:12;13.70;99.90
3330;DHT22;1677;49.576;10.990;2023-06-24T03:33:40;13.70;99.90
3330;DHT22;1677;49.576;10.990;2023-06-24T03:36:10;13.80;99.90
3330;DHT22;1677;49.576;10.990;2023-06-24T03:38:35;13.80;99.90
3330;DHT22;1677;49.576;10.990;2023-06-24T03:41:01;13.80;99.90
3330;DHT22;1677;49.576;10.990;2023-06-24T03:43:26;13.70;99.90
3330;DHT22;1677;49.576;10.990;2023-06-24T03:45:51;13.80;99.90
3330;DHT22;1677;49.576;10.990;2023-06-24T03:48:17;13.80;99.90
3330;DHT22;1677;49.576;10.990;2023-06-24T03:50:42;13.70;99.90
3330;DHT22;1677;49.576;10.990;2023-06-24T03:53:08;13.80;99.90
3330;DHT22;1677;49.576;10.990;2023-06-24T03:55:33;13.80;99.90
3330;DHT22;1677;49.576;10.990;2023-06-24T03:57:59;13.90;99.90
3330;DHT22;1677;49.576;10.990;2023-06-24T04:00:24;13.90;99.90
3330;DHT22;1677;49.576;10.990;2023-06-24T04:02:50;14.10;99.90
3330;DHT22;1677;49.576;10.990;2023-06-24T04:05:17;14.10;99.90
3330;DHT22;1677;49.576;10.990;2023-06-24T04:07:42;14.10;99.90
3330;DHT22;1677;49.576;10.990;2023-06-24T04:10:12;14.10;99.90
3330;DHT22;1677;49.576;10.990;2023-06-24T04:12:38;14.20;99.90
3330;DHT22;1677;49.576;10.990;2023-06-24T04:15:03;14.30;99.90
3330;DHT22;1677;49.576;10.990;2023-06-24T04:17:30;14.50;99.90
3330;DHT22;1677;49.576;10.990;2023-06-24T04:19:55;14.50;99.90
3330;DHT22;1677;49.576;10.990;2023-06-24T04:22:21;14.50;99.90
3330;DHT22;1677;49.576;10.990;2023-06-24T04:24:46;14.50;99.90
3330;DHT22;1677;49.576;10.990;2023-06-24T04:27:12;14.50;99.90
3330;DHT22;1677;49.576;10.990;2023-06-24T04:29:37;14.50;99.90
3330;DHT22;1677;49.576;10.990;2023-06-24T04:32:03;14.50;99.90
3330;DHT22;1677;49.576;10.990;2023-06-24T04:34:28;14.60;99.90
3330;DHT22;1677;49.576;10.990;2023-06-24T04:36:54;14.90;99.90
3330;DHT22;1677;49.576;10.990;2023-06-24T04:39:19;14.90;99.90
3330;DHT22;1677;49.576;10.990;2023-06-24T04:41:44;14.90;99.90
3330;DHT22;1677;49.576;10.990;2023-06-24T04:44:11;15.00;99.90
3330;DHT22;1677;49.576;10.990;2023-06-24T04:46:36;15.00;99.90
3330;DHT22;1677;49.576;10.990;2023-06-24T04:49:02;15.10;99.90
3330;DHT22;1677;49.576;10.990;2023-06-24T04:51:28;15.00;99.90
3330;DHT22;1677;49.576;10.990;2023-06-24T04:53:53;15.20;99.90
3330;DHT22;1677;49.576;10.990;2023-06-24T04:56:20;15.40;99.90
3330;DHT22;1677;49.576;10.990;2023-06-24T04:58:46;15.60;99.90
3330;DHT22;1677;49.576;10.990;2023-06-24T05:01:11;15.60;99.90
3330;DHT22;1677;49.576;10.990;2023-06-24T05:03:37;15.60;99.90
3330;DHT22;1677;49.576;10.990;2023-06-24T05:06:02;15.60;99.90
3330;DHT22;1677;49.576;10.990;2023-06-24T05:08:28;15.60;99.90
3330;DHT22;1677;49.576;10.990;2023-06-24T05:10:53;15.70;99.90
3330;DHT22;1677;49.576;10.990;2023-06-24T05:13:19;15.80;99.90
3330;DHT22;1677;49.576;10.990;2023-06-24T05:15:44;16.00;99.90
3330;DHT22;1677;49.576;10.990;2023-06-24T05:18:10;16.20;99.90
3330;DHT22;1677;49.576;10.990;2023-06-24T05:20:35;16.30;99.90
3330;DHT22;1677;49.576;10.990;2023-06-24T05:23:01;16.30;99.90
3330;DHT22;1677;49.576;10.990;2023-06-24T05:25:26;16.40;99.90
3330;DHT22;1677;49.576;10.990;2023-06-24T05:27:52;16.50;99.90
3330;DHT22;1677;49.576;10.990;2023-06-24T05:30:17;16.50;99.90
3330;DHT22;1677;49.576;10.990;2023-06-24T05:32:43;16.50;99.90
3330;DHT22;1677;49.576;10.990;2023-06-24T05:35:08;16.60;99.90
3330;DHT22;1677;49.576;10.990;2023-06-24T05:37:34;16.70;99.90
3330;DHT22;1677;49.576;10.990;2023-06-24T05:40:00;17.00;99.90
3330;DHT22;1677;49.576;10.990;2023-06-24T05:42:27;17.10;99.90
3330;DHT22;1677;49.576;10.990;2023-06-24T05:44:52;17.10;99.90
3330;DHT22;1677;49.576;10.990;2023-06-24T05:47:18;17.20;99.90
3330;DHT22;1677;49.576;10.990;2023-06-24T05:49:43;17.20;99.90
3330;DHT22;1677;49.576;10.990;2023-06-24T05:52:09;17.30;99.90
3330;DHT22;1677;49.576;10.990;2023-06-24T05:54:34;17.50;99.90
3330;DHT22;1677;49.576;10.990;2023-06-24T05:57:00;17.50;99.90
3330;DHT22;1677;49.576;10.990;2023-06-24T05:59:25;17.50;99.90
3330;DHT22;1677;49.576;10.990;2023-06-24T06:01:51;17.50;99.90
3330;DHT22;1677;49.576;10.990;2023-06-24T06:04:16;17.70;99.90
3330;DHT22;1677;49.576;10.990;2023-06-24T06:06:42;17.80;99.90
3330;DHT22;1677;49.576;10.990;2023-06-24T06:09:07;18.00;99.90
3330;DHT22;1677;49.576;10.990;2023-06-24T06:11:32;18.00;99.90
3330;DHT22;1677;49.576;10.990;2023-06-24T06:13:58;18.10;99.90
3330;DHT22;1677;49.576;10.990;2023-06-24T06:16:23;18.30;99.90
3330;DHT22;1677;49.576;10.990;2023-06-24T06:18:49;18.30;99.90
3330;DHT22;1677;49.576;10.990;2023-06-24T06:21:14;18.20;99.90
3330;DHT22;1677;49.576;10.990;2023-06-24T06:23:40;18.20;99.90
3330;DHT22;1677;49.576;10.990;2023-06-24T06:26:05;18.30;99.90
3330;DHT22;1677;49.576;10.990;2023-06-24T06:28:31;18.40;99.90
3330;DHT22;1677;49.576;10.990;2023-06-24T06:30:56;18.80;99.90
3330;DHT22;1677;49.576;10.990;2023-06-24T06:33:22;18.90;99.90
3330;DHT22;1677;49.576;10.990;2023-06-24T06:35:47;19.00;99.90
3330;DHT22;1677;49.576;10.990;2023-06-24T06:38:13;19.20;99.90
3330;DHT22;1677;49.576;10.990;2023-06-24T06:40:39;19.40;99.90
3330;DHT22;1677;49.576;10.990;2023-06-24T06:43:05;19.40;99.90
3330;DHT22;1677;49.576;10.990;2023-06-24T06:45:31;19.60;99.90
3330;DHT22;1677;49.576;10.990;2023-06-24T06:47:56;19.70;99.90
3330;DHT22;1677;49.576;10.990;2023-06-24T06:50:21;19.70;99.90
3330;DHT22;1677;49.576;10.990;2023-06-24T06:52:47;20.00;99.90
3330;DHT22;1677;49.576;10.990;2023-06-24T06:55:12;20.10;99.90
3330;DHT22;1677;49.576;10.990;2023-06-24T06:57:38;20.00;99.90
3330;DHT22;1677;49.576;10.990;2023-06-24T07:00:03;20.10;99.90
3330;DHT22;1677;49.576;10.990;2023-06-24T07:02:29;20.30;99.90
3330;DHT22;1677;49.576;10.990;2023-06-24T07:04:55;20.50;99.90
3330;DHT22;1677;49.576;10.990;2023-06-24T07:07:20;20.70;99.90
3330;DHT22;1677;49.576;10.990;2023-06-24T07:09:45;20.60;99.90
3330;DHT22;1677;49.576;10.990;2023-06-24T07:12:13;20.70;99.90
3330;DHT22;1677;49.576;10.990;2023-06-24T07:14:41;20.90;99.90
3330;DHT22;1677;49.576;10.990;2023-06-24T07:17:07;21.10;99.90
3330;DHT22;1677;49.576;10.990;2023-06-24T07:19:32;21.10;99.90
3330;DHT22;1677;49.576;10.990;2023-06-24T07:21:58;21.30;99.90
3330;DHT22;1677;49.576;10.990;2023-06-24T07:24:23;21.40;99.90
3330;DHT22;1677;49.576;10.990;2023-06-24T07:26:49;21.50;99.90
3330;DHT22;1677;49.576;10.990;2023-06-24T07:29:14;21.50;99.90
3330;DHT22;1677;49.576;10.990;2023-06-24T07:31:40;21.60;99.90
3330;DHT22;1677;49.576;10.990;2023-06-24T07:34:05;21.70;99.90
3330;DHT22;1677;49.576;10.990;2023-06-24T07:36:31;21.60;99.90
3330;DHT22;1677;49.576;10.990;2023-06-24T07:38:56;21.70;99.90
3330;DHT22;1677;49.576;10.990;2023-06-24T07:41:22;22.00;99.90
3330;DHT22;1677;49.576;10.990;2023-06-24T07:43:47;22.20;99.90
3330;DHT22;1677;49.576;10.990;2023-06-24T07:46:13;22.40;99.90
3330;DHT22;1677;49.576;10.990;2023-06-24T07:48:38;22.60;99.90
3330;DHT22;1677;49.576;10.990;2023-06-24T07:51:04;22.70;99.90
3330;DHT22;1677;49.576;10.990;2023-06-24T07:53:29;22.90;99.90
3330;DHT22;1677;49.576;10.990;2023-06-24T07:55:55;23.10;99.90
3330;DHT22;1677;49.576;10.990;2023-06-24T07:58:20;23.20;99.90
3330;DHT22;1677;49.576;10.990;2023-06-24T08:00:46;23.30;99.90
3330;DHT22;1677;49.576;10.990;2023-06-24T08:03:12;23.40;99.90
3330;DHT22;1677;49.576;10.990;2023-06-24T08:05:38;23.40;99.90
3330;DHT22;1677;49.576;10.990;2023-06-24T08:08:04;23.40;99.90
3330;DHT22;1677;49.576;10.990;2023-06-24T08:10:30;23.60;99.90
3330;DHT22;1677;49.576;10.990;2023-06-24T08:12:55;23.80;99.90
3330;DHT22;1677;49.576;10.990;2023-06-24T08:15:21;23.90;99.90
3330;DHT22;1677;49.576;10.990;2023-06-24T08:17:53;24.30;99.90
3330;DHT22;1677;49.576;10.990;2023-06-24T08:20:19;24.60;99.90
3330;DHT22;1677;49.576;10.990;2023-06-24T08:22:45;24.90;99.90
3330;DHT22;1677;49.576;10.990;2023-06-24T08:25:10;24.90;99.90
3330;DHT22;1677;49.576;10.990;2023-06-24T08:27:36;25.00;99.90
3330;DHT22;1677;49.576;10.990;2023-06-24T08:30:03;25.10;99.90
3330;DHT22;1677;49.576;10.990;2023-06-24T08:32:28;25.10;99.90
3330;DHT22;1677;49.576;10.990;2023-06-24T08:34:54;25.20;99.90
3330;DHT22;1677;49.576;10.990;2023-06-24T08:37:19;25.50;99.90
3330;DHT22;1677;49.576;10.990;2023-06-24T08:39:44;25.50;99.90
3330;DHT22;1677;49.576;10.990;2023-06-24T08:42:10;25.60;99.90
3330;DHT22;1677;49.576;10.990;2023-06-24T08:44:35;25.70;99.50
3330;DHT22;1677;49.576;10.990;2023-06-24T08:47:01;25.90;98.00
3330;DHT22;1677;49.576;10.990;2023-06-24T08:49:28;26.10;98.70
3330;DHT22;1677;49.576;10.990;2023-06-24T08:54:22;26.90;97.40
3330;DHT22;1677;49.576;10.990;2023-06-24T08:56:48;27.10;97.50
3330;DHT22;1677;49.576;10.990;2023-06-24T08:59:14;27.40;96.00
3330;DHT22;1677;49.576;10.990;2023-06-24T09:01:44;27.80;95.50
3330;DHT22;1677;49.576;10.990;2023-06-24T09:04:10;28.10;91.10
3330;DHT22;1677;49.576;10.990;2023-06-24T09:06:35;28.10;90.50
3330;DHT22;1677;49.576;10.990;2023-06-24T09:09:01;28.00;88.00
3330;DHT22;1677;49.576;10.990;2023-06-24T09:11:27;27.80;85.40
3330;DHT22;1677;49.576;10.990;2023-06-24T09:13:59;27.30;90.20
3330;DHT22;1677;49.576;10.990;2023-06-24T09:16:25;26.90;84.80
3330;DHT22;1677;49.576;10.990;2023-06-24T09:18:51;27.20;87.60
3330;DHT22;1677;49.576;10.990;2023-06-24T09:21:27;27.60;85.50
3330;DHT22;1677;49.576;10.990;2023-06-24T09:23:54;27.50;85.80
3330;DHT22;1677;49.576;10.990;2023-06-24T09:26:26;27.00;88.70
3330;DHT22;1677;49.576;10.990;2023-06-24T09:28:52;26.80;88.40
3330;DHT22;1677;49.576;10.990;2023-06-24T09:31:18;27.30;85.90
3330;DHT22;1677;49.576;10.990;2023-06-24T09:33:43;27.70;79.50
3330;DHT22;1677;49.576;10.990;2023-06-24T09:36:13;27.60;78.10
3330;DHT22;1677;49.576;10.990;2023-06-24T09:38:41;27.80;81.30
3330;DHT22;1677;49.576;10.990;2023-06-24T09:41:07;28.10;80.50
3330;DHT22;1677;49.576;10.990;2023-06-24T09:43:33;28.30;77.00
3330;DHT22;1677;49.576;10.990;2023-06-24T09:46:01;28.60;80.30
3330;DHT22;1677;49.576;10.990;2023-06-24T09:48:26;28.70;79.60
3330;DHT22;1677;49.576;10.990;2023-06-24T09:50:52;28.50;76.20
3330;DHT22;1677;49.576;10.990;2023-06-24T09:53:17;28.50;75.40
3330;DHT22;1677;49.576;10.990;2023-06-24T09:55:43;28.40;74.90
3330;DHT22;1677;49.576;10.990;2023-06-24T09:58:11;28.50;74.20
3330;DHT22;1677;49.576;10.990;2023-06-24T10:00:37;27.90;74.70
3330;DHT22;1677;49.576;10.990;2023-06-24T10:03:02;27.90;77.80
3330;DHT22;1677;49.576;10.990;2023-06-24T10:05:28;28.30;78.80
3330;DHT22;1677;49.576;10.990;2023-06-24T10:07:53;28.60;77.00
3330;DHT22;1677;49.576;10.990;2023-06-24T10:10:19;28.90;75.30
3330;DHT22;1677;49.576;10.990;2023-06-24T10:12:45;29.00;71.80
3330;DHT22;1677;49.576;10.990;2023-06-24T10:15:10;29.30;68.10
3330;DHT22;1677;49.576;10.990;2023-06-24T10:17:36;29.60;69.80
3330;DHT22;1677;49.576;10.990;2023-06-24T10:20:05;30.00;69.60
3330;DHT22;1677;49.576;10.990;2023-06-24T10:22:31;30.30;66.70
3330;DHT22;1677;49.576;10.990;2023-06-24T10:25:00;29.90;71.30
3330;DHT22;1677;49.576;10.990;2023-06-24T10:27:26;30.00;67.00
3330;DHT22;1677;49.576;10.990;2023-06-24T10:29:53;30.30;69.60
3330;DHT22;1677;49.576;10.990;2023-06-24T10:32:19;30.00;70.10
3330;DHT22;1677;49.576;10.990;2023-06-24T10:34:46;29.90;66.20
3330;DHT22;1677;49.576;10.990;2023-06-24T10:37:12;28.80;68.80
3330;DHT22;1677;49.576;10.990;2023-06-24T10:44:48;27.80;71.20
3330;DHT22;1677;49.576;10.990;2023-06-24T10:47:13;27.50;70.10
3330;DHT22;1677;49.576;10.990;2023-06-24T10:49:39;28.30;71.80
3330;DHT22;1677;49.576;10.990;2023-06-24T10:52:07;28.90;71.40
3330;DHT22;1677;49.576;10.990;2023-06-24T10:54:33;29.40;69.30
3330;DHT22;1677;49.576;10.990;2023-06-24T10:56:58;29.50;64.80
3330;DHT22;1677;49.576;10.990;2023-06-24T10:59:23;29.80;67.70
3330;DHT22;1677;49.576;10.990;2023-06-24T11:01:55;29.80;65.20
3330;DHT22;1677;49.576;10.990;2023-06-24T11:04:20;28.40;67.00
3330;DHT22;1677;49.576;10.990;2023-06-24T11:06:58;28.40;70.50
3330;DHT22;1677;49.576;10.990;2023-06-24T11:09:24;28.70;67.80
3330;DHT22;1677;49.576;10.990;2023-06-24T11:11:49;29.00;64.80
3330;DHT22;1677;49.576;10.990;2023-06-24T11:14:19;29.40;62.50
3330;DHT22;1677;49.576;10.990;2023-06-24T11:16:45;29.80;64.10
3330;DHT22;1677;49.576;10.990;2023-06-24T11:19:10;30.20;61.80
3330;DHT22;1677;49.576;10.990;2023-06-24T11:21:36;30.60;56.80
3330;DHT22;1677;49.576;10.990;2023-06-24T11:24:04;30.10;56.60
3330;DHT22;1677;49.576;10.990;2023-06-24T11:26:30;30.30;58.40
3330;DHT22;1677;49.576;10.990;2023-06-24T11:28:55;30.40;59.60
3330;DHT22;1677;49.576;10.990;2023-06-24T11:31:27;30.50;58.60
3330;DHT22;1677;49.576;10.990;2023-06-24T11:33:53;30.90;57.10
3330;DHT22;1677;49.576;10.990;2023-06-24T11:36:18;31.10;57.40
3330;DHT22;1677;49.576;10.990;2023-06-24T11:38:47;31.60;56.40
3330;DHT22;1677;49.576;10.990;2023-06-24T11:41:13;31.80;56.20
3330;DHT22;1677;49.576;10.990;2023-06-24T11:43:45;30.90;55.50
3330;DHT22;1677;49.576;10.990;2023-06-24T11:46:20;30.90;56.70
3330;DHT22;1677;49.576;10.990;2023-06-24T11:48:46;31.40;53.20
3330;DHT22;1677;49.576;10.990;2023-06-24T11:51:12;31.70;54.80
3330;DHT22;1677;49.576;10.990;2023-06-24T11:53:41;32.60;54.10
3330;DHT22;1677;49.576;10.990;2023-06-24T11:56:11;33.70;52.50
3330;DHT22;1677;49.576;10.990;2023-06-24T11:58:37;34.40;48.50
3330;DHT22;1677;49.576;10.990;2023-06-24T12:01:02;33.60;48.90
3330;DHT22;1677;49.576;10.990;2023-06-24T12:03:28;34.30;45.90
3330;DHT22;1677;49.576;10.990;2023-06-24T12:05:54;34.20;45.70
3330;DHT22;1677;49.576;10.990;2023-06-24T12:08:19;35.50;43.80
3330;DHT22;1677;49.576;10.990;2023-06-24T12:10:45;35.60;42.00
3330;DHT22;1677;49.576;10.990;2023-06-24T12:13:11;35.30;43.50
3330;DHT22;1677;49.576;10.990;2023-06-24T12:15:36;35.30;43.80
3330;DHT22;1677;49.576;10.990;2023-06-24T12:18:02;34.70;44.30
3330;DHT22;1677;49.576;10.990;2023-06-24T12:20:28;33.20;47.10
3330;DHT22;1677;49.576;10.990;2023-06-24T12:22:54;32.30;46.50
3330;DHT22;1677;49.576;10.990;2023-06-24T12:25:20;31.60;46.50
3330;DHT22;1677;49.576;10.990;2023-06-24T12:27:46;30.90;48.10
3330;DHT22;1677;49.576;10.990;2023-06-24T12:30:12;30.70;49.90
3330;DHT22;1677;49.576;10.990;2023-06-24T12:32:38;30.90;48.90
3330;DHT22;1677;49.576;10.990;2023-06-24T12:35:03;31.00;47.90
3330;DHT22;1677;49.576;10.990;2023-06-24T12:37:30;31.30;48.00
3330;DHT22;1677;49.576;10.990;2023-06-24T12:39:56;31.10;46.20
3330;DHT22;1677;49.576;10.990;2023-06-24T12:42:21;31.00;47.20
3330;DHT22;1677;49.576;10.990;2023-06-24T12:44:47;30.40;48.60
3330;DHT22;1677;49.576;10.990;2023-06-24T12:47:12;30.40;50.80
3330;DHT22;1677;49.576;10.990;2023-06-24T12:49:38;29.50;52.30
3330;DHT22;1677;49.576;10.990;2023-06-24T12:52:03;29.00;52.90
3330;DHT22;1677;49.576;10.990;2023-06-24T12:54:29;29.20;53.80
3330;DHT22;1677;49.576;10.990;2023-06-24T12:56:54;30.00;53.40
3330;DHT22;1677;49.576;10.990;2023-06-24T12:59:19;30.60;53.10
3330;DHT22;1677;49.576;10.990;2023-06-24T13:01:45;30.80;50.70
3330;DHT22;1677;49.576;10.990;2023-06-24T13:04:11;30.70;50.10
3330;DHT22;1677;49.576;10.990;2023-06-24T13:06:36;30.20;50.90
3330;DHT22;1677;49.576;10.990;2023-06-24T13:09:02;29.80;50.10
3330;DHT22;1677;49.576;10.990;2023-06-24T13:11:28;29.20;53.70
3330;DHT22;1677;49.576;10.990;2023-06-24T13:13:53;29.50;53.20
3330;DHT22;1677;49.576;10.990;2023-06-24T13:16:19;29.90;51.10
3330;DHT22;1677;49.576;10.990;2023-06-24T13:18:44;30.20;53.50
3330;DHT22;1677;49.576;10.990;2023-06-24T13:21:10;30.40;49.10
3330;DHT22;1677;49.576;10.990;2023-06-24T13:23:35;30.30;49.90
3330;DHT22;1677;49.576;10.990;2023-06-24T13:26:03;30.00;50.00
3330;DHT22;1677;49.576;10.990;2023-06-24T13:28:29;29.70;51.40
3330;DHT22;1677;49.576;10.990;2023-06-24T13:30:57;29.60;51.90
3330;DHT22;1677;49.576;10.990;2023-06-24T13:33:22;29.80;52.80
3330;DHT22;1677;49.576;10.990;2023-06-24T13:35:48;30.00;50.60
3330;DHT22;1677;49.576;10.990;2023-06-24T13:38:14;30.00;50.10
3330;DHT22;1677;49.576;10.990;2023-06-24T13:40:40;29.80;49.20
3330;DHT22;1677;49.576;10.990;2023-06-24T13:43:05;29.60;48.90
3330;DHT22;1677;49.576;10.990;2023-06-24T13:45:31;29.00;51.30
3330;DHT22;1677;49.576;10.990;2023-06-24T13:47:56;28.90;52.90
3330;DHT22;1677;49.576;10.990;2023-06-24T13:50:22;29.10;50.90
3330;DHT22;1677;49.576;10.990;2023-06-24T13:52:48;29.30;50.90
3330;DHT22;1677;49.576;10.990;2023-06-24T13:55:13;29.60;51.70
3330;DHT22;1677;49.576;10.990;2023-06-24T13:57:39;29.80;47.10
3330;DHT22;1677;49.576;10.990;2023-06-24T14:00:04;30.10;50.50
3330;DHT22;1677;49.576;10.990;2023-06-24T14:02:30;30.30;48.60
3330;DHT22;1677;49.576;10.990;2023-06-24T14:04:56;30.40;47.20
3330;DHT22;1677;49.576;10.990;2023-06-24T14:07:21;30.50;46.40
3330;DHT22;1677;49.576;10.990;2023-06-24T14:09:47;30.50;46.70
3330;DHT22;1677;49.576;10.990;2023-06-24T14:12:12;30.40;47.40
3330;DHT22;1677;49.576;10.990;2023-06-24T14:14:37;30.00;47.30
3330;DHT22;1677;49.576;10.990;2023-06-24T14:17:04;29.50;47.50
3330;DHT22;1677;49.576;10.990;2023-06-24T14:19:34;29.20;45.40
3330;DHT22;1677;49.576;10.990;2023-06-24T14:21:59;28.80;45.60
3330;DHT22;1677;49.576;10.990;2023-06-24T14:24:25;28.80;45.10
3330;DHT22;1677;49.576;10.990;2023-06-24T14:26:50;28.90;45.80
3330;DHT22;1677;49.576;10.990;2023-06-24T14:29:16;29.10;46.60
3330;DHT22;1677;49.576;10.990;2023-06-24T14:31:42;29.10;43.70
3330;DHT22;1677;49.576;10.990;2023-06-24T14:34:07;29.10;44.30
3330;DHT22;1677;49.576;10.990;2023-06-24T14:36:33;29.20;47.60
3330;DHT22;1677;49.576;10.990;2023-06-24T14:38:58;29.10;46.70
3330;DHT22;1677;49.576;10.990;2023-06-24T14:41:24;28.80;48.00
3330;DHT22;1677;49.576;10.990;2023-06-24T14:43:49;28.60;47.60
3330;DHT22;1677;49.576;10.990;2023-06-24T14:46:17;28.50;46.70
3330;DHT22;1677;49.576;10.990;2023-06-24T14:48:42;28.50;44.00
3330;DHT22;1677;49.576;10.990;2023-06-24T14:51:08;28.40;42.10
3330;DHT22;1677;49.576;10.990;2023-06-24T14:53:33;28.30;40.60
3330;DHT22;1677;49.576;10.990;2023-06-24T14:55:58;28.10;40.90
3330;DHT22;1677;49.576;10.990;2023-06-24T14:58:24;28.10;42.70
3330;DHT22;1677;49.576;10.990;2023-06-24T15:00:49;28.10;42.50
3330;DHT22;1677;49.576;10.990;2023-06-24T15:03:15;28.20;43.00
3330;DHT22;1677;49.576;10.990;2023-06-24T15:05:40;28.10;40.50
3330;DHT22;1677;49.576;10.990;2023-06-24T15:08:06;28.00;42.50
3330;DHT22;1677;49.576;10.990;2023-06-24T15:10:32;28.00;41.40
3330;DHT22;1677;49.576;10.990;2023-06-24T15:12:57;28.00;41.40
3330;DHT22;1677;49.576;10.990;2023-06-24T15:15:23;28.10;45.40
3330;DHT22;1677;49.576;10.990;2023-06-24T15:17:48;28.00;44.10
3330;DHT22;1677;49.576;10.990;2023-06-24T15:20:14;27.90;43.00
3330;DHT22;1677;49.576;10.990;2023-06-24T15:22:40;27.90;45.80
3330;DHT22;1677;49.576;10.990;2023-06-24T15:25:06;27.90;44.10
3330;DHT22;1677;49.576;10.990;2023-06-24T15:27:31;27.90;43.10
3330;DHT22;1677;49.576;10.990;2023-06-24T15:29:57;27.90;42.90
3330;DHT22;1677;49.576;10.990;2023-06-24T15:32:22;27.80;42.90
3330;DHT22;1677;49.576;10.990;2023-06-24T15:34:48;27.80;43.80
3330;DHT22;1677;49.576;10.990;2023-06-24T15:37:13;27.70;44.80
3330;DHT22;1677;49.576;10.990;2023-06-24T15:39:42;27.70;42.30
3330;DHT22;1677;49.576;10.990;2023-06-24T15:42:07;27.60;44.10
3330;DHT22;1677;49.576;10.990;2023-06-24T15:44:33;27.70;44.70
3330;DHT22;1677;49.576;10.990;2023-06-24T15:46:59;27.70;45.10
3330;DHT22;1677;49.576;10.990;2023-06-24T15:49:24;27.70;44.40
3330;DHT22;1677;49.576;10.990;2023-06-24T15:51:50;27.60;44.00